createdAt,value
2019-02-16T00:00:20.342Z,0.16
2019-02-16T00:04:24.680Z,0.21
2019-02-16T00:08:27.469Z,0.19
2019-02-16T00:12:30.244Z,0.25
2019-02-16T00:16:33.122Z,0.31
2019-02-16T00:20:35.843Z,0.34
2019-02-16T00:24:39.045Z,0.32
2019-02-16T00:28:41.653Z,0.39
2019-02-16T00:32:44.355Z,0.36
2019-02-16T00:36:47.241Z,0.37
2019-02-16T00:40:50.017Z,0.43
2019-02-16T00:44:52.402Z,0.42
2019-02-16T00:48:55.280Z,0.40
2019-02-16T00:52:57.652Z,0.43
2019-02-16T00:57:00.101Z,0.43
2019-02-16T01:01:02.975Z,0.42
2019-02-16T01:05:06.211Z,0.42
2019-02-16T01:09:08.674Z,0.42
2019-02-16T01:13:11.211Z,0.41
2019-02-16T01:17:13.563Z,0.41
2019-02-16T01:21:22.558Z,0.41
2019-02-16T01:25:20.086Z,0.39
2019-02-16T01:29:22.578Z,0.40
2019-02-16T01:33:24.936Z,0.43
2019-02-16T01:37:27.590Z,0.42
2019-02-16T01:41:30.287Z,0.45
2019-02-16T01:45:33.164Z,0.46
2019-02-16T01:49:35.982Z,0.44
2019-02-16T01:53:38.830Z,0.45
2019-02-16T01:57:41.286Z,0.46
2019-02-16T02:01:44.049Z,0.44
2019-02-16T02:05:46.424Z,0.45
2019-02-16T02:09:49.210Z,0.47
2019-02-16T02:13:51.809Z,0.48
2019-02-16T02:17:54.495Z,0.49
2019-02-16T02:21:56.852Z,0.53
2019-02-16T02:25:59.582Z,0.58
2019-02-16T02:30:02.296Z,0.58
2019-02-16T02:34:04.816Z,0.60
2019-02-16T02:38:07.194Z,0.60
2019-02-16T02:42:09.822Z,0.61
2019-02-16T02:46:12.561Z,0.63
2019-02-16T02:50:15.659Z,0.66
2019-02-16T02:54:18.119Z,0.67
2019-02-16T02:58:20.567Z,0.70
2019-02-16T03:02:22.932Z,0.72
2019-02-16T03:06:25.658Z,0.76
2019-02-16T03:10:28.009Z,0.82
2019-02-16T03:14:30.509Z,0.86
2019-02-16T03:18:32.914Z,0.93
2019-02-16T03:23:31.215Z,0.92
2019-02-16T03:28:26.337Z,0.93
2019-02-16T03:33:16.100Z,0.91
2019-02-16T03:37:55.994Z,0.95
2019-02-16T03:41:58.942Z,0.90
2019-02-16T03:46:01.713Z,0.85
2019-02-16T03:50:06.166Z,0.85
2019-02-16T03:54:09.137Z,0.82
2019-02-16T03:58:12.907Z,0.68
2019-02-16T04:02:15.543Z,0.49
2019-02-16T04:06:18.221Z,0.40
2019-02-16T04:10:20.709Z,0.26
2019-02-16T04:14:23.510Z,0.15
2019-02-16T04:18:26.344Z,0.05
2019-02-16T04:22:29.181Z,-0.15
2019-02-16T04:26:31.906Z,-0.20
2019-02-16T04:30:34.758Z,-0.19
2019-02-16T04:34:38.465Z,-0.26
2019-02-16T04:38:41.199Z,-0.28
2019-02-16T04:42:43.795Z,-0.28
2019-02-16T04:46:46.465Z,-0.42
2019-02-16T04:50:49.067Z,-0.51
2019-02-16T04:54:52.600Z,-0.61
2019-02-16T04:58:55.331Z,-0.55
2019-02-16T05:02:58.000Z,-0.55
2019-02-16T05:07:00.829Z,-0.53
2019-02-16T05:11:03.464Z,-0.55
2019-02-16T05:15:06.022Z,-0.52
2019-02-16T05:19:08.732Z,-0.37
2019-02-16T05:23:11.435Z,-0.40
2019-02-16T05:27:14.202Z,-0.31
2019-02-16T05:31:16.899Z,-0.14
2019-02-16T05:35:19.622Z,-0.10
2019-02-16T05:39:22.187Z,-0.01
2019-02-16T05:43:24.847Z,-0.20
2019-02-16T05:47:27.502Z,-0.17
2019-02-16T05:51:30.954Z,-0.27
2019-02-16T05:55:33.954Z,-0.38
2019-02-16T05:59:36.770Z,-0.34
2019-02-16T06:03:39.794Z,-0.32
2019-02-16T06:07:42.824Z,-0.31
2019-02-16T06:11:45.387Z,-0.42
2019-02-16T06:15:48.352Z,-0.30
2019-02-16T06:19:50.768Z,-0.23
2019-02-16T06:23:53.380Z,-0.19
2019-02-16T06:27:55.911Z,-0.09
2019-02-16T06:31:58.578Z,0.07
2019-02-16T06:36:05.796Z,0.21
2019-02-16T06:40:08.560Z,0.48
2019-02-16T06:44:10.913Z,0.61
2019-02-16T06:48:13.341Z,0.68
2019-02-16T06:52:15.678Z,0.70
2019-02-16T06:56:27.541Z,0.76
2019-02-16T07:00:31.115Z,0.74
2019-02-16T07:04:33.531Z,0.81
2019-02-16T07:08:35.897Z,0.96
2019-02-16T07:12:38.387Z,1.02
2019-02-16T07:16:56.087Z,1.03
2019-02-16T07:20:58.531Z,1.22
2019-02-16T07:25:00.902Z,1.38
2019-02-16T07:29:03.346Z,1.55
2019-02-16T07:33:05.808Z,1.53
2019-02-16T07:37:08.447Z,1.54
2019-02-16T07:41:10.920Z,1.74
2019-02-16T07:45:27.375Z,1.75
2019-02-16T07:49:37.937Z,1.76
2019-02-16T07:53:59.101Z,1.92
2019-02-16T07:58:34.262Z,2.05
2019-02-16T08:03:01.865Z,2.10
2019-02-16T08:07:13.696Z,2.19
2019-02-16T08:11:25.773Z,2.29
2019-02-16T08:15:53.057Z,2.44
2019-02-16T08:20:13.038Z,2.51
2019-02-16T08:24:38.701Z,2.55
2019-02-16T08:29:06.081Z,2.74
2019-02-16T08:33:15.938Z,2.87
2019-02-16T08:37:34.401Z,3.01
2019-02-16T08:41:50.822Z,3.19
2019-02-16T08:46:12.866Z,3.25
2019-02-16T08:50:33.146Z,3.35
2019-02-16T08:55:00.332Z,3.56
2019-02-16T08:59:24.508Z,3.58
2019-02-16T09:03:59.602Z,3.67
2019-02-16T09:08:20.668Z,3.75
2019-02-16T09:12:51.363Z,3.84
2019-02-16T09:17:13.309Z,4.04
2019-02-16T09:21:23.006Z,4.08
2019-02-16T09:25:49.928Z,4.11
2019-02-16T09:30:14.779Z,4.23
2019-02-16T09:34:23.961Z,4.51
2019-02-16T09:38:54.502Z,4.58
2019-02-16T09:43:08.041Z,4.78
2019-02-16T09:47:19.203Z,4.81
2019-02-16T09:51:40.316Z,4.91
2019-02-16T09:56:00.456Z,5.11
2019-02-16T10:00:10.730Z,5.09
2019-02-16T10:04:31.992Z,5.18
2019-02-16T10:08:53.347Z,5.18
2019-02-16T10:13:14.730Z,5.26
2019-02-16T10:17:42.427Z,5.37
2019-02-16T10:22:16.135Z,5.36
2019-02-16T10:26:37.270Z,5.52
2019-02-16T10:30:47.971Z,5.61
2019-02-16T10:35:09.196Z,5.70
2019-02-16T10:39:19.790Z,5.76
2019-02-16T10:43:40.890Z,5.72
2019-02-16T10:48:14.141Z,5.75
2019-02-16T10:52:33.616Z,5.96
2019-02-16T10:57:04.196Z,6.00
2019-02-16T11:01:25.469Z,6.05
2019-02-16T11:05:53.061Z,6.01
2019-02-16T11:10:19.345Z,6.17
2019-02-16T11:14:46.416Z,6.19
2019-02-16T11:18:55.919Z,6.21
2019-02-16T11:23:17.020Z,6.23
2019-02-16T11:27:44.632Z,6.25
2019-02-16T11:32:08.889Z,6.28
2019-02-16T11:36:35.300Z,6.30
2019-02-16T11:40:59.103Z,6.35
2019-02-16T11:45:20.166Z,6.28
2019-02-16T11:49:33.272Z,6.39
2019-02-16T11:53:52.990Z,6.35
2019-02-16T11:58:16.222Z,6.45
2019-02-16T12:02:52.964Z,6.37
2019-02-16T12:07:14.247Z,6.35
2019-02-16T12:11:53.939Z,6.27
2019-02-16T12:16:15.100Z,6.19
2019-02-16T12:20:39.000Z,6.25
2019-02-16T12:25:04.867Z,6.26
2019-02-16T12:29:30.523Z,6.26
2019-02-16T12:33:58.021Z,6.17
2019-02-16T12:38:10.012Z,6.20
2019-02-16T12:42:43.425Z,6.04
2019-02-16T12:47:16.830Z,6.06
2019-02-16T12:51:40.752Z,6.07
2019-02-16T12:55:59.192Z,5.97
2019-02-16T13:00:14.631Z,6.01
2019-02-16T13:04:38.746Z,5.91
2019-02-16T13:08:48.765Z,5.85
2019-02-16T13:12:58.009Z,5.72
2019-02-16T13:17:18.138Z,5.63
2019-02-16T13:21:57.660Z,5.59
2019-02-16T13:26:16.820Z,5.60
2019-02-16T13:30:36.766Z,5.48
2019-02-16T13:34:52.166Z,5.31
2019-02-16T13:39:13.258Z,5.29
2019-02-16T13:43:33.690Z,5.25
2019-02-16T13:47:54.804Z,5.29
2019-02-16T13:52:14.672Z,5.20
2019-02-16T13:56:28.064Z,5.07
2019-02-16T14:00:58.295Z,5.21
2019-02-16T14:05:22.474Z,5.02
2019-02-16T14:09:42.360Z,4.72
2019-02-16T14:13:56.064Z,4.60
2019-02-16T14:17:58.496Z,4.63
2019-02-16T14:22:00.824Z,4.64
2019-02-16T14:26:03.433Z,4.38
2019-02-16T14:30:06.453Z,4.33
2019-02-16T14:34:09.489Z,4.29
2019-02-16T14:38:35.398Z,4.12
2019-02-16T14:42:37.884Z,4.01
2019-02-16T14:46:40.220Z,4.03
2019-02-16T14:50:42.674Z,3.92
2019-02-16T14:54:45.128Z,3.76
2019-02-16T14:58:47.538Z,3.81
2019-02-16T15:02:49.880Z,3.83
2019-02-16T15:06:52.338Z,3.70
2019-02-16T15:10:54.739Z,3.60
2019-02-16T15:14:57.187Z,3.87
2019-02-16T15:18:59.776Z,3.64
2019-02-16T15:23:02.411Z,3.64
2019-02-16T15:27:04.849Z,3.43
2019-02-16T15:31:07.364Z,3.44
2019-02-16T15:35:10.697Z,3.39
2019-02-16T15:39:13.155Z,3.25
2019-02-16T15:43:15.590Z,3.25
2019-02-16T15:47:18.408Z,3.19
2019-02-16T15:51:20.770Z,2.96
2019-02-16T15:55:23.163Z,3.14
2019-02-16T15:59:25.502Z,3.08
2019-02-16T16:03:29.064Z,3.15
2019-02-16T16:07:31.797Z,3.20
2019-02-16T16:11:45.239Z,3.13
2019-02-16T16:16:01.323Z,3.04
2019-02-16T16:20:25.396Z,3.15
2019-02-16T16:24:39.684Z,3.06
2019-02-16T16:29:00.794Z,3.14
2019-02-16T16:33:31.425Z,3.28
2019-02-16T16:37:59.204Z,3.12
2019-02-16T16:42:19.154Z,3.11
2019-02-16T16:46:39.292Z,3.10
2019-02-16T16:50:50.015Z,3.10
2019-02-16T16:55:14.458Z,3.06
2019-02-16T16:59:35.536Z,3.03
2019-02-16T17:04:12.544Z,3.16
2019-02-16T17:08:29.153Z,3.12
2019-02-16T17:12:49.232Z,2.98
2019-02-16T17:17:12.711Z,2.95
2019-02-16T17:21:35.870Z,2.87
2019-02-16T17:26:16.346Z,2.85
2019-02-16T17:30:31.745Z,2.84
2019-02-16T17:34:52.814Z,2.81
2019-02-16T17:39:12.879Z,2.79
2019-02-16T17:43:33.649Z,2.69
2019-02-16T17:48:07.895Z,2.63
2019-02-16T17:52:27.528Z,2.49
2019-02-16T17:56:46.796Z,2.37
2019-02-16T18:01:08.756Z,2.48
2019-02-16T18:05:34.587Z,2.32
2019-02-16T18:09:58.794Z,1.98
2019-02-16T18:14:16.968Z,2.00
2019-02-16T18:18:51.739Z,1.91
2019-02-16T18:23:09.799Z,1.88
2019-02-16T18:27:36.912Z,1.95
2019-02-16T18:32:13.712Z,1.97
2019-02-16T18:36:28.704Z,1.89
2019-02-16T18:40:42.611Z,1.91
2019-02-16T18:45:06.500Z,1.87
2019-02-16T18:49:24.414Z,1.83
2019-02-16T18:53:58.325Z,1.67
2019-02-16T18:58:12.048Z,1.74
2019-02-16T19:02:32.299Z,1.94
2019-02-16T19:06:45.214Z,1.75
2019-02-16T19:11:09.465Z,1.80
2019-02-16T19:15:48.940Z,1.91
2019-02-16T19:20:16.611Z,1.97
2019-02-16T19:24:27.953Z,2.00
2019-02-16T19:28:50.883Z,2.01
2019-02-16T19:33:05.069Z,1.99
2019-02-16T19:37:23.143Z,2.13
2019-02-16T19:41:43.556Z,2.14
2019-02-16T19:46:20.465Z,1.98
2019-02-16T19:50:30.683Z,1.90
2019-02-16T19:54:44.213Z,1.75
2019-02-16T19:59:08.712Z,1.71
2019-02-16T20:03:32.979Z,1.66
2019-02-16T20:07:52.962Z,1.55
2019-02-16T20:12:05.274Z,1.44
2019-02-16T20:16:45.538Z,1.42
2019-02-16T20:21:07.270Z,1.30
2019-02-16T20:25:27.875Z,1.41
2019-02-16T20:29:48.032Z,1.39
2019-02-16T20:34:15.686Z,1.42
2019-02-16T20:38:36.764Z,1.19
2019-02-16T20:42:57.924Z,1.09
2019-02-16T20:47:09.407Z,1.16
2019-02-16T20:51:18.541Z,1.05
2019-02-16T20:55:55.071Z,0.93
2019-02-16T21:00:22.673Z,1.03
2019-02-16T21:04:42.952Z,1.26
2019-02-16T21:09:16.239Z,1.03
2019-02-16T21:13:33.170Z,0.93
2019-02-16T21:17:57.575Z,1.05
2019-02-16T21:22:21.534Z,1.04
2019-02-16T21:26:46.578Z,0.86
2019-02-16T21:30:58.844Z,0.71
2019-02-16T21:35:09.822Z,0.66
2019-02-16T21:39:20.217Z,0.80
2019-02-16T21:43:41.640Z,0.83
2019-02-16T21:48:05.788Z,0.82
2019-02-16T21:52:27.047Z,0.87
2019-02-16T21:56:48.778Z,0.72
2019-02-16T22:01:16.275Z,0.81
2019-02-16T22:05:36.600Z,0.76
2019-02-16T22:09:58.199Z,0.71
2019-02-16T22:14:00.541Z,0.80
2019-02-16T22:18:02.984Z,0.83
2019-02-16T22:22:05.314Z,0.81
2019-02-16T22:26:07.750Z,0.78
2019-02-16T22:30:11.767Z,0.74
2019-02-16T22:34:14.170Z,0.76
2019-02-16T22:38:16.481Z,0.97
2019-02-16T22:42:19.128Z,0.99
2019-02-16T22:46:21.461Z,0.95
2019-02-16T22:50:23.897Z,0.99
2019-02-16T22:54:27.542Z,1.15
2019-02-16T22:58:29.928Z,1.31
2019-02-16T23:02:32.241Z,1.30
2019-02-16T23:06:34.650Z,1.34
2019-02-16T23:10:37.088Z,1.32
2019-02-16T23:14:39.447Z,1.32
2019-02-16T23:18:41.812Z,1.34
2019-02-16T23:22:44.241Z,1.31
2019-02-16T23:26:46.598Z,1.34
2019-02-16T23:30:50.573Z,1.17
2019-02-16T23:34:52.956Z,1.41
2019-02-16T23:38:55.556Z,1.30
2019-02-16T23:42:57.861Z,1.11
2019-02-16T23:47:00.307Z,1.17
2019-02-16T23:51:02.850Z,1.18
2019-02-16T23:55:05.728Z,1.25
2019-02-16T23:59:08.065Z,1.18
